sensor_id;sensor_type;location;lat;lon;timestamp;pressure;altitude;pressure_sealevel;temperature;humidity
2675;BME280;1347;42.122;24.746;2022-09-04T00:01:22;99796.00;;;21.55;81.66
2675;BME280;1347;42.122;24.746;2022-09-04T00:03:56;99794.63;;;21.47;82.59
2675;BME280;1347;42.122;24.746;2022-09-04T00:06:31;99800.63;;;21.46;82.75
2675;BME280;1347;42.122;24.746;2022-09-04T00:09:08;99804.63;;;21.28;83.23
2675;BME280;1347;42.122;24.746;2022-09-04T00:11:43;99805.84;;;21.27;83.48
2675;BME280;1347;42.122;24.746;2022-09-04T00:14:17;99813.63;;;21.36;83.01
2675;BME280;1347;42.122;24.746;2022-09-04T00:16:48;99810.47;;;21.34;82.91
2675;BME280;1347;42.122;24.746;2022-09-04T00:19:25;99816.56;;;21.29;82.69
2675;BME280;1347;42.122;24.746;2022-09-04T00:21:57;99822.94;;;21.29;82.68
2675;BME280;1347;42.122;24.746;2022-09-04T00:24:28;99827.47;;;21.23;81.81
2675;BME280;1347;42.122;24.746;2022-09-04T00:26:59;99825.34;;;21.27;82.04
2675;BME280;1347;42.122;24.746;2022-09-04T00:29:38;99826.59;;;21.26;82.40
2675;BME280;1347;42.122;24.746;2022-09-04T00:32:17;99834.00;;;21.33;82.28
2675;BME280;1347;42.122;24.746;2022-09-04T00:34:57;99834.00;;;21.33;82.04
2675;BME280;1347;42.122;24.746;2022-09-04T00:37:31;99834.50;;;21.28;81.66
2675;BME280;1347;42.122;24.746;2022-09-04T00:40:03;99844.97;;;21.24;81.85
2675;BME280;1347;42.122;24.746;2022-09-04T00:42:55;99846.44;;;21.28;82.38
2675;BME280;1347;42.122;24.746;2022-09-04T00:45:39;99861.72;;;21.24;82.78
2675;BME280;1347;42.122;24.746;2022-09-04T00:48:47;99851.78;;;21.23;82.81
2675;BME280;1347;42.122;24.746;2022-09-04T00:51:28;99858.06;;;21.27;83.25
2675;BME280;1347;42.122;24.746;2022-09-04T00:54:13;99846.19;;;21.23;83.58
2675;BME280;1347;42.122;24.746;2022-09-04T00:57:11;99851.41;;;21.21;83.04
2675;BME280;1347;42.122;24.746;2022-09-04T01:00:07;99854.78;;;21.12;83.86
2675;BME280;1347;42.122;24.746;2022-09-04T01:02:59;99852.34;;;21.14;83.54
2675;BME280;1347;42.122;24.746;2022-09-04T01:05:42;99856.50;;;21.06;84.29
2675;BME280;1347;42.122;24.746;2022-09-04T01:08:19;99864.34;;;21.11;84.56
2675;BME280;1347;42.122;24.746;2022-09-04T01:10:59;99861.50;;;21.15;83.85
2675;BME280;1347;42.122;24.746;2022-09-04T01:13:35;99863.91;;;21.13;83.83
2675;BME280;1347;42.122;24.746;2022-09-04T01:16:09;99862.00;;;21.10;84.32
2675;BME280;1347;42.122;24.746;2022-09-04T01:18:46;99866.88;;;21.06;84.54
2675;BME280;1347;42.122;24.746;2022-09-04T01:21:45;99865.72;;;21.03;84.66
2675;BME280;1347;42.122;24.746;2022-09-04T01:24:32;99868.59;;;21.00;84.81
2675;BME280;1347;42.122;24.746;2022-09-04T01:27:08;99868.81;;;20.89;85.73
2675;BME280;1347;42.122;24.746;2022-09-04T01:29:43;99860.03;;;20.90;85.79
2675;BME280;1347;42.122;24.746;2022-09-04T01:32:23;99859.84;;;20.81;85.85
2675;BME280;1347;42.122;24.746;2022-09-04T01:35:00;99855.63;;;20.73;86.36
2675;BME280;1347;42.122;24.746;2022-09-04T01:37:38;99863.56;;;20.75;86.70
2675;BME280;1347;42.122;24.746;2022-09-04T01:40:20;99865.19;;;20.72;86.84
2675;BME280;1347;42.122;24.746;2022-09-04T01:42:52;99861.03;;;20.80;86.66
2675;BME280;1347;42.122;24.746;2022-09-04T01:45:35;99859.56;;;20.76;87.17
2675;BME280;1347;42.122;24.746;2022-09-04T01:48:10;99862.06;;;20.70;88.38
2675;BME280;1347;42.122;24.746;2022-09-04T01:50:43;99867.06;;;20.59;89.48
2675;BME280;1347;42.122;24.746;2022-09-04T01:53:13;99873.78;;;20.62;89.70
2675;BME280;1347;42.122;24.746;2022-09-04T01:55:47;99868.84;;;20.69;89.03
2675;BME280;1347;42.122;24.746;2022-09-04T01:58:24;99867.25;;;20.68;89.43
2675;BME280;1347;42.122;24.746;2022-09-04T02:01:06;99871.63;;;20.69;89.48
2675;BME280;1347;42.122;24.746;2022-09-04T02:03:43;99876.72;;;20.74;89.00
2675;BME280;1347;42.122;24.746;2022-09-04T02:06:20;99876.59;;;20.78;89.03
2675;BME280;1347;42.122;24.746;2022-09-04T02:09:05;99886.75;;;20.68;89.90
2675;BME280;1347;42.122;24.746;2022-09-04T02:11:37;99886.84;;;20.65;90.39
2675;BME280;1347;42.122;24.746;2022-09-04T02:14:22;99892.69;;;20.70;90.55
2675;BME280;1347;42.122;24.746;2022-09-04T02:17:03;99885.19;;;20.67;91.38
2675;BME280;1347;42.122;24.746;2022-09-04T02:19:40;99883.41;;;20.77;90.50
2675;BME280;1347;42.122;24.746;2022-09-04T02:22:22;99887.84;;;20.54;91.79
2675;BME280;1347;42.122;24.746;2022-09-04T02:24:56;99882.75;;;20.49;92.21
2675;BME280;1347;42.122;24.746;2022-09-04T02:27:31;99881.81;;;20.56;91.91
2675;BME280;1347;42.122;24.746;2022-09-04T02:30:06;99867.47;;;20.38;92.91
2675;BME280;1347;42.122;24.746;2022-09-04T02:32:39;99871.03;;;20.38;93.11
2675;BME280;1347;42.122;24.746;2022-09-04T02:35:12;99876.41;;;20.49;92.60
2675;BME280;1347;42.122;24.746;2022-09-04T02:37:50;99878.25;;;20.36;93.30
2675;BME280;1347;42.122;24.746;2022-09-04T02:40:25;99874.72;;;20.32;93.18
2675;BME280;1347;42.122;24.746;2022-09-04T02:43:05;99869.66;;;20.27;93.61
2675;BME280;1347;42.122;24.746;2022-09-04T02:45:44;99872.78;;;20.29;93.35
2675;BME280;1347;42.122;24.746;2022-09-04T02:48:17;99881.56;;;20.27;93.88
2675;BME280;1347;42.122;24.746;2022-09-04T02:51:08;99873.00;;;20.18;94.59
2675;BME280;1347;42.122;24.746;2022-09-04T02:53:46;99878.91;;;20.20;94.10
2675;BME280;1347;42.122;24.746;2022-09-04T02:56:24;99883.72;;;19.96;95.29
2675;BME280;1347;42.122;24.746;2022-09-04T02:59:14;99877.53;;;20.08;95.04
2675;BME280;1347;42.122;24.746;2022-09-04T03:01:51;99877.91;;;20.10;94.84
2675;BME280;1347;42.122;24.746;2022-09-04T03:04:24;99881.13;;;20.09;94.80
2675;BME280;1347;42.122;24.746;2022-09-04T03:07:00;99884.44;;;20.00;95.27
2675;BME280;1347;42.122;24.746;2022-09-04T03:09:32;99892.50;;;19.95;95.96
2675;BME280;1347;42.122;24.746;2022-09-04T03:14:53;99880.47;;;19.78;97.08
2675;BME280;1347;42.122;24.746;2022-09-04T03:17:27;99884.75;;;19.82;97.31
2675;BME280;1347;42.122;24.746;2022-09-04T03:20:02;99891.16;;;19.79;97.76
2675;BME280;1347;42.122;24.746;2022-09-04T03:22:35;99887.22;;;19.77;97.98
2675;BME280;1347;42.122;24.746;2022-09-04T03:25:24;99881.75;;;19.73;97.77
2675;BME280;1347;42.122;24.746;2022-09-04T03:27:51;99882.06;;;19.75;97.78
2675;BME280;1347;42.122;24.746;2022-09-04T03:30:18;99885.31;;;19.74;98.10
2675;BME280;1347;42.122;24.746;2022-09-04T03:32:56;99886.69;;;19.62;98.53
2675;BME280;1347;42.122;24.746;2022-09-04T03:35:32;99889.38;;;19.66;98.80
2675;BME280;1347;42.122;24.746;2022-09-04T03:38:07;99890.84;;;19.51;99.53
2675;BME280;1347;42.122;24.746;2022-09-04T03:40:40;99901.69;;;19.41;100.00
2675;BME280;1347;42.122;24.746;2022-09-04T03:43:20;99903.19;;;19.46;100.00
2675;BME280;1347;42.122;24.746;2022-09-04T03:45:55;99901.59;;;19.45;100.00
2675;BME280;1347;42.122;24.746;2022-09-04T03:48:38;99901.41;;;19.32;100.00
2675;BME280;1347;42.122;24.746;2022-09-04T03:51:16;99901.72;;;19.38;100.00
2675;BME280;1347;42.122;24.746;2022-09-04T03:53:59;99902.53;;;19.35;100.00
2675;BME280;1347;42.122;24.746;2022-09-04T03:56:54;99913.09;;;19.47;100.00
2675;BME280;1347;42.122;24.746;2022-09-04T03:59:36;99913.78;;;19.28;100.00
2675;BME280;1347;42.122;24.746;2022-09-04T04:02:12;99914.75;;;19.14;100.00
2675;BME280;1347;42.122;24.746;2022-09-04T04:07:45;99927.63;;;19.31;100.00
2675;BME280;1347;42.122;24.746;2022-09-04T04:10:25;99937.91;;;19.34;100.00
2675;BME280;1347;42.122;24.746;2022-09-04T04:16:07;99945.75;;;19.43;100.00
2675;BME280;1347;42.122;24.746;2022-09-04T04:21:44;99955.22;;;19.49;100.00
2675;BME280;1347;42.122;24.746;2022-09-04T04:24:27;99958.84;;;19.42;100.00
2675;BME280;1347;42.122;24.746;2022-09-04T04:27:18;99961.56;;;19.46;100.00
2675;BME280;1347;42.122;24.746;2022-09-04T04:30:05;99971.97;;;19.42;100.00
2675;BME280;1347;42.122;24.746;2022-09-04T04:35:28;99971.91;;;19.45;100.00
2675;BME280;1347;42.122;24.746;2022-09-04T04:38:16;99967.59;;;19.41;100.00
2675;BME280;1347;42.122;24.746;2022-09-04T04:41:15;99970.31;;;19.48;100.00
2675;BME280;1347;42.122;24.746;2022-09-04T04:44:05;99980.59;;;19.51;100.00
2675;BME280;1347;42.122;24.746;2022-09-04T04:46:43;99989.66;;;19.55;100.00
2675;BME280;1347;42.122;24.746;2022-09-04T04:52:19;99999.19;;;19.58;99.37
2675;BME280;1347;42.122;24.746;2022-09-04T04:55:04;99998.72;;;19.63;99.11
2675;BME280;1347;42.122;24.746;2022-09-04T04:57:43;99992.00;;;19.60;98.84
2675;BME280;1347;42.122;24.746;2022-09-04T05:00:15;100006.78;;;19.54;99.60
2675;BME280;1347;42.122;24.746;2022-09-04T05:02:52;100006.31;;;19.59;99.23
2675;BME280;1347;42.122;24.746;2022-09-04T05:05:47;100005.53;;;19.58;99.05
2675;BME280;1347;42.122;24.746;2022-09-04T05:08:25;100005.91;;;19.60;98.50
2675;BME280;1347;42.122;24.746;2022-09-04T05:11:03;100010.53;;;19.40;100.00
2675;BME280;1347;42.122;24.746;2022-09-04T05:13:39;100016.44;;;19.42;100.00
2675;BME280;1347;42.122;24.746;2022-09-04T05:16:19;100021.94;;;19.45;100.00
2675;BME280;1347;42.122;24.746;2022-09-04T05:18:51;100031.81;;;19.54;99.85
2675;BME280;1347;42.122;24.746;2022-09-04T05:21:30;100029.31;;;19.63;99.64
2675;BME280;1347;42.122;24.746;2022-09-04T05:24:04;100030.66;;;19.51;99.47
2675;BME280;1347;42.122;24.746;2022-09-04T05:26:42;100028.59;;;19.55;99.53
2675;BME280;1347;42.122;24.746;2022-09-04T05:29:18;100036.81;;;19.66;98.87
2675;BME280;1347;42.122;24.746;2022-09-04T05:31:52;100048.25;;;19.71;98.31
2675;BME280;1347;42.122;24.746;2022-09-04T05:34:28;100048.19;;;19.75;97.69
2675;BME280;1347;42.122;24.746;2022-09-04T05:37:07;100055.25;;;19.83;96.85
2675;BME280;1347;42.122;24.746;2022-09-04T05:39:46;100067.25;;;19.76;97.17
2675;BME280;1347;42.122;24.746;2022-09-04T05:42:42;100059.47;;;19.95;96.73
2675;BME280;1347;42.122;24.746;2022-09-04T05:45:20;100058.81;;;20.10;95.89
2675;BME280;1347;42.122;24.746;2022-09-04T05:47:57;100061.66;;;20.07;95.15
2675;BME280;1347;42.122;24.746;2022-09-04T05:50:44;100061.66;;;20.34;94.52
2675;BME280;1347;42.122;24.746;2022-09-04T05:53:38;100063.97;;;20.39;93.11
2675;BME280;1347;42.122;24.746;2022-09-04T05:56:47;100067.00;;;20.48;91.96
2675;BME280;1347;42.122;24.746;2022-09-04T05:59:46;100071.59;;;20.58;90.51
2675;BME280;1347;42.122;24.746;2022-09-04T06:05:35;100072.75;;;20.61;89.92
2675;BME280;1347;42.122;24.746;2022-09-04T06:08:15;100063.75;;;20.53;90.52
2675;BME280;1347;42.122;24.746;2022-09-04T06:10:55;100058.03;;;20.60;89.60
2675;BME280;1347;42.122;24.746;2022-09-04T06:13:40;100050.25;;;20.75;88.96
2675;BME280;1347;42.122;24.746;2022-09-04T06:16:26;100053.91;;;20.68;89.17
2675;BME280;1347;42.122;24.746;2022-09-04T06:19:08;100056.41;;;20.86;87.92
2675;BME280;1347;42.122;24.746;2022-09-04T06:21:59;100055.34;;;21.00;87.57
2675;BME280;1347;42.122;24.746;2022-09-04T06:24:45;100057.00;;;21.17;86.29
2675;BME280;1347;42.122;24.746;2022-09-04T06:27:24;100055.81;;;21.38;86.25
2675;BME280;1347;42.122;24.746;2022-09-04T06:30:07;100045.50;;;21.54;84.93
2675;BME280;1347;42.122;24.746;2022-09-04T06:32:51;100039.84;;;21.58;84.49
2675;BME280;1347;42.122;24.746;2022-09-04T06:35:31;100041.66;;;21.84;84.36
2675;BME280;1347;42.122;24.746;2022-09-04T06:38:12;100052.25;;;22.09;82.94
2675;BME280;1347;42.122;24.746;2022-09-04T06:40:54;100048.59;;;22.12;82.27
2675;BME280;1347;42.122;24.746;2022-09-04T06:43:30;100049.66;;;22.34;81.83
2675;BME280;1347;42.122;24.746;2022-09-04T06:46:07;100057.97;;;22.54;80.63
2675;BME280;1347;42.122;24.746;2022-09-04T06:48:51;100055.00;;;22.45;81.16
2675;BME280;1347;42.122;24.746;2022-09-04T06:51:30;100054.41;;;22.37;80.24
2675;BME280;1347;42.122;24.746;2022-09-04T06:54:08;100055.09;;;22.25;80.24
2675;BME280;1347;42.122;24.746;2022-09-04T06:56:47;100046.63;;;22.29;81.86
2675;BME280;1347;42.122;24.746;2022-09-04T06:59:34;100038.84;;;22.36;80.76
2675;BME280;1347;42.122;24.746;2022-09-04T07:02:18;100048.06;;;22.66;79.96
2675;BME280;1347;42.122;24.746;2022-09-04T07:05:02;100048.69;;;22.90;79.51
2675;BME280;1347;42.122;24.746;2022-09-04T07:07:38;100034.63;;;23.35;77.85
2675;BME280;1347;42.122;24.746;2022-09-04T07:10:09;100027.56;;;24.10;74.76
2675;BME280;1347;42.122;24.746;2022-09-04T07:13:09;100037.09;;;25.07;70.84
2675;BME280;1347;42.122;24.746;2022-09-04T07:15:59;100038.50;;;24.89;70.75
2675;BME280;1347;42.122;24.746;2022-09-04T07:18:42;100037.50;;;25.61;68.56
2675;BME280;1347;42.122;24.746;2022-09-04T07:21:19;100039.81;;;25.85;66.96
2675;BME280;1347;42.122;24.746;2022-09-04T07:23:54;100047.34;;;25.97;65.48
2675;BME280;1347;42.122;24.746;2022-09-04T07:26:32;100053.72;;;26.28;64.35
2675;BME280;1347;42.122;24.746;2022-09-04T07:29:20;100046.00;;;28.68;58.59
2675;BME280;1347;42.122;24.746;2022-09-04T07:31:58;100036.75;;;30.79;53.99
2675;BME280;1347;42.122;24.746;2022-09-04T07:34:32;100031.19;;;33.38;47.24
2675;BME280;1347;42.122;24.746;2022-09-04T07:37:10;100042.34;;;33.97;44.26
2675;BME280;1347;42.122;24.746;2022-09-04T07:39:45;100036.97;;;34.80;42.68
2675;BME280;1347;42.122;24.746;2022-09-04T07:42:18;100037.47;;;34.84;42.14
2675;BME280;1347;42.122;24.746;2022-09-04T07:44:52;100038.19;;;33.93;43.44
2675;BME280;1347;42.122;24.746;2022-09-04T07:47:26;100039.53;;;34.89;41.94
2675;BME280;1347;42.122;24.746;2022-09-04T07:50:01;100034.34;;;36.29;39.72
2675;BME280;1347;42.122;24.746;2022-09-04T07:52:52;100046.16;;;34.11;42.58
2675;BME280;1347;42.122;24.746;2022-09-04T07:55:34;100044.63;;;34.05;42.40
2675;BME280;1347;42.122;24.746;2022-09-04T07:58:32;100050.97;;;36.01;39.68
2675;BME280;1347;42.122;24.746;2022-09-04T08:01:22;100056.66;;;34.72;40.36
2675;BME280;1347;42.122;24.746;2022-09-04T08:04:13;100059.66;;;34.00;42.30
2675;BME280;1347;42.122;24.746;2022-09-04T08:06:48;100064.72;;;34.68;41.59
2675;BME280;1347;42.122;24.746;2022-09-04T08:09:38;100057.88;;;34.99;40.27
2675;BME280;1347;42.122;24.746;2022-09-04T08:12:27;100063.44;;;36.52;39.10
2675;BME280;1347;42.122;24.746;2022-09-04T08:15:08;100066.03;;;38.72;35.20
2675;BME280;1347;42.122;24.746;2022-09-04T08:17:55;100067.69;;;39.95;33.91
2675;BME280;1347;42.122;24.746;2022-09-04T08:20:41;100063.25;;;41.67;32.48
2675;BME280;1347;42.122;24.746;2022-09-04T08:23:26;100060.38;;;44.62;29.75
2675;BME280;1347;42.122;24.746;2022-09-04T08:26:03;100066.47;;;45.18;28.50
2675;BME280;1347;42.122;24.746;2022-09-04T08:31:36;100042.25;;;42.65;29.36
2675;BME280;1347;42.122;24.746;2022-09-04T08:37:18;100051.31;;;42.62;30.42
2675;BME280;1347;42.122;24.746;2022-09-04T08:39:52;100033.88;;;42.29;30.52
2675;BME280;1347;42.122;24.746;2022-09-04T08:42:55;100030.28;;;39.67;32.40
2675;BME280;1347;42.122;24.746;2022-09-04T08:52:21;100036.63;;;33.97;41.33
2675;BME280;1347;42.122;24.746;2022-09-04T08:55:16;100026.13;;;34.61;39.67
2675;BME280;1347;42.122;24.746;2022-09-04T08:58:15;100024.25;;;34.86;39.46
2675;BME280;1347;42.122;24.746;2022-09-04T09:01:05;100023.09;;;38.00;36.16
2675;BME280;1347;42.122;24.746;2022-09-04T09:03:59;100037.41;;;40.43;33.29
2675;BME280;1347;42.122;24.746;2022-09-04T09:06:55;100023.75;;;40.08;33.14
2675;BME280;1347;42.122;24.746;2022-09-04T09:09:54;100027.44;;;40.73;32.02
2675;BME280;1347;42.122;24.746;2022-09-04T09:15:55;100040.81;;;44.88;28.38
2675;BME280;1347;42.122;24.746;2022-09-04T09:18:36;100045.91;;;44.62;28.13
2675;BME280;1347;42.122;24.746;2022-09-04T09:21:08;100034.44;;;41.74;30.72
2675;BME280;1347;42.122;24.746;2022-09-04T09:23:57;100031.03;;;41.99;30.58
2675;BME280;1347;42.122;24.746;2022-09-04T09:26:33;100022.13;;;40.49;32.40
2675;BME280;1347;42.122;24.746;2022-09-04T09:29:31;100031.28;;;40.19;32.31
2675;BME280;1347;42.122;24.746;2022-09-04T09:35:42;100033.19;;;36.62;36.56
2675;BME280;1347;42.122;24.746;2022-09-04T09:38:56;100042.94;;;35.23;38.70
2675;BME280;1347;42.122;24.746;2022-09-04T09:42:00;100052.06;;;35.16;38.92
2675;BME280;1347;42.122;24.746;2022-09-04T09:54:29;100034.38;;;39.37;33.50
2675;BME280;1347;42.122;24.746;2022-09-04T09:57:35;100030.53;;;41.26;32.06
2675;BME280;1347;42.122;24.746;2022-09-04T10:00:11;100031.00;;;42.44;30.13
2675;BME280;1347;42.122;24.746;2022-09-04T10:06:27;100028.94;;;43.57;29.64
2675;BME280;1347;42.122;24.746;2022-09-04T10:16:12;100027.88;;;45.60;27.81
2675;BME280;1347;42.122;24.746;2022-09-04T10:28:03;100011.19;;;38.88;32.54
2675;BME280;1347;42.122;24.746;2022-09-04T10:30:50;100007.94;;;38.05;33.61
2675;BME280;1347;42.122;24.746;2022-09-04T10:33:27;100002.06;;;37.52;34.03
2675;BME280;1347;42.122;24.746;2022-09-04T10:36:16;99994.78;;;37.83;34.87
2675;BME280;1347;42.122;24.746;2022-09-04T10:39:00;99982.28;;;36.18;36.20
2675;BME280;1347;42.122;24.746;2022-09-04T10:42:03;99984.75;;;34.55;39.09
2675;BME280;1347;42.122;24.746;2022-09-04T10:44:51;99983.03;;;34.93;38.40
2675;BME280;1347;42.122;24.746;2022-09-04T10:47:35;99979.22;;;33.71;40.77
2675;BME280;1347;42.122;24.746;2022-09-04T10:50:25;99976.09;;;33.08;40.18
2675;BME280;1347;42.122;24.746;2022-09-04T10:53:17;99978.94;;;32.43;41.99
2675;BME280;1347;42.122;24.746;2022-09-04T10:56:11;99960.66;;;32.07;43.13
2675;BME280;1347;42.122;24.746;2022-09-04T10:59:13;99957.94;;;31.81;43.33
2675;BME280;1347;42.122;24.746;2022-09-04T11:05:23;99944.13;;;31.31;45.18
2675;BME280;1347;42.122;24.746;2022-09-04T11:08:18;99942.00;;;31.26;45.35
2675;BME280;1347;42.122;24.746;2022-09-04T11:11:00;99943.56;;;30.35;45.25
2675;BME280;1347;42.122;24.746;2022-09-04T11:20:10;99920.91;;;30.76;46.52
2675;BME280;1347;42.122;24.746;2022-09-04T11:23:07;99910.97;;;30.19;47.94
2675;BME280;1347;42.122;24.746;2022-09-04T11:26:04;99903.69;;;29.43;49.86
2675;BME280;1347;42.122;24.746;2022-09-04T11:28:59;99900.09;;;28.98;50.23
2675;BME280;1347;42.122;24.746;2022-09-04T11:31:54;99904.94;;;28.83;50.73
2675;BME280;1347;42.122;24.746;2022-09-04T11:38:15;99903.59;;;29.08;50.71
2675;BME280;1347;42.122;24.746;2022-09-04T11:44:18;99903.22;;;29.15;49.27
2675;BME280;1347;42.122;24.746;2022-09-04T11:47:22;99894.34;;;29.22;51.01
2675;BME280;1347;42.122;24.746;2022-09-04T11:50:01;99892.09;;;29.11;49.42
2675;BME280;1347;42.122;24.746;2022-09-04T11:52:44;99883.13;;;29.27;48.96
2675;BME280;1347;42.122;24.746;2022-09-04T11:55:24;99890.84;;;29.27;49.75
2675;BME280;1347;42.122;24.746;2022-09-04T11:58:15;99876.25;;;28.99;49.96
2675;BME280;1347;42.122;24.746;2022-09-04T12:00:52;99875.94;;;29.12;50.59
2675;BME280;1347;42.122;24.746;2022-09-04T12:03:42;99874.78;;;29.18;50.24
2675;BME280;1347;42.122;24.746;2022-09-04T12:06:44;99860.78;;;28.80;50.18
2675;BME280;1347;42.122;24.746;2022-09-04T12:09:50;99866.28;;;28.60;50.95
2675;BME280;1347;42.122;24.746;2022-09-04T12:12:45;99856.78;;;28.86;52.69
2675;BME280;1347;42.122;24.746;2022-09-04T12:16:05;99873.69;;;29.31;49.19
2675;BME280;1347;42.122;24.746;2022-09-04T12:30:51;99867.56;;;32.00;45.28
2675;BME280;1347;42.122;24.746;2022-09-04T12:33:53;99872.53;;;32.98;43.01
2675;BME280;1347;42.122;24.746;2022-09-04T12:36:56;99861.66;;;33.07;42.12
2675;BME280;1347;42.122;24.746;2022-09-04T12:40:10;99849.94;;;31.42;44.78
2675;BME280;1347;42.122;24.746;2022-09-04T12:42:46;99852.19;;;30.75;45.59
2675;BME280;1347;42.122;24.746;2022-09-04T12:45:20;99850.19;;;30.09;47.57
2675;BME280;1347;42.122;24.746;2022-09-04T12:47:56;99843.44;;;30.27;47.68
2675;BME280;1347;42.122;24.746;2022-09-04T12:50:38;99850.31;;;30.20;47.89
2675;BME280;1347;42.122;24.746;2022-09-04T12:56:18;99846.03;;;30.77;46.59
2675;BME280;1347;42.122;24.746;2022-09-04T12:59:15;99851.09;;;30.67;46.66
2675;BME280;1347;42.122;24.746;2022-09-04T13:01:55;99854.75;;;29.86;47.66
2675;BME280;1347;42.122;24.746;2022-09-04T13:04:33;99851.22;;;29.91;49.00
2675;BME280;1347;42.122;24.746;2022-09-04T13:07:18;99835.03;;;29.92;48.84
2675;BME280;1347;42.122;24.746;2022-09-04T13:09:56;99840.59;;;29.86;48.36
2675;BME280;1347;42.122;24.746;2022-09-04T13:12:33;99840.13;;;29.88;48.07
2675;BME280;1347;42.122;24.746;2022-09-04T13:15:26;99845.03;;;29.73;49.23
2675;BME280;1347;42.122;24.746;2022-09-04T13:18:04;99838.25;;;29.64;49.28
2675;BME280;1347;42.122;24.746;2022-09-04T13:20:48;99833.34;;;29.80;49.72
2675;BME280;1347;42.122;24.746;2022-09-04T13:23:28;99835.28;;;29.74;49.11
2675;BME280;1347;42.122;24.746;2022-09-04T13:26:19;99832.22;;;29.72;49.93
2675;BME280;1347;42.122;24.746;2022-09-04T13:29:00;99819.19;;;29.59;49.33
2675;BME280;1347;42.122;24.746;2022-09-04T13:31:43;99813.59;;;29.65;48.56
2675;BME280;1347;42.122;24.746;2022-09-04T13:34:21;99820.94;;;29.57;49.24
2675;BME280;1347;42.122;24.746;2022-09-04T13:37:00;99822.81;;;30.21;48.69
2675;BME280;1347;42.122;24.746;2022-09-04T13:39:50;99824.94;;;30.52;47.02
2675;BME280;1347;42.122;24.746;2022-09-04T13:42:44;99822.44;;;30.85;47.07
2675;BME280;1347;42.122;24.746;2022-09-04T13:45:16;99829.06;;;31.39;45.03
2675;BME280;1347;42.122;24.746;2022-09-04T13:47:53;99834.69;;;31.34;45.46
2675;BME280;1347;42.122;24.746;2022-09-04T13:50:24;99831.88;;;30.77;45.55
2675;BME280;1347;42.122;24.746;2022-09-04T13:52:57;99844.38;;;30.64;45.91
2675;BME280;1347;42.122;24.746;2022-09-04T13:55:30;99845.16;;;29.98;46.57
2675;BME280;1347;42.122;24.746;2022-09-04T13:58:02;99857.44;;;29.25;46.93
2675;BME280;1347;42.122;24.746;2022-09-04T14:00:38;99842.66;;;29.16;47.94
2675;BME280;1347;42.122;24.746;2022-09-04T14:03:18;99845.00;;;28.59;49.79
2675;BME280;1347;42.122;24.746;2022-09-04T14:05:49;99848.88;;;28.46;50.53
2675;BME280;1347;42.122;24.746;2022-09-04T14:08:16;99849.13;;;28.10;51.50
2675;BME280;1347;42.122;24.746;2022-09-04T14:11:09;99849.44;;;28.12;51.77
2675;BME280;1347;42.122;24.746;2022-09-04T14:13:51;99840.50;;;28.13;52.03
2675;BME280;1347;42.122;24.746;2022-09-04T14:16:54;99831.94;;;28.08;51.70
2675;BME280;1347;42.122;24.746;2022-09-04T14:19:31;99826.16;;;27.88;50.88
2675;BME280;1347;42.122;24.746;2022-09-04T14:22:36;99819.28;;;27.79;52.03
2675;BME280;1347;42.122;24.746;2022-09-04T14:25:13;99839.88;;;27.95;51.77
2675;BME280;1347;42.122;24.746;2022-09-04T14:27:51;99827.09;;;28.08;51.83
2675;BME280;1347;42.122;24.746;2022-09-04T14:30:24;99829.88;;;28.32;50.55
2675;BME280;1347;42.122;24.746;2022-09-04T14:33:05;99835.63;;;28.38;50.56
2675;BME280;1347;42.122;24.746;2022-09-04T14:35:41;99821.13;;;28.45;49.61
2675;BME280;1347;42.122;24.746;2022-09-04T14:38:38;99815.47;;;28.30;49.86
2675;BME280;1347;42.122;24.746;2022-09-04T14:41:19;99818.84;;;28.19;50.69
2675;BME280;1347;42.122;24.746;2022-09-04T14:44:10;99826.88;;;28.12;51.22
2675;BME280;1347;42.122;24.746;2022-09-04T14:46:45;99832.97;;;27.96;51.18
2675;BME280;1347;42.122;24.746;2022-09-04T14:49:22;99834.22;;;27.71;51.85
2675;BME280;1347;42.122;24.746;2022-09-04T14:52:01;99837.59;;;27.84;52.30
2675;BME280;1347;42.122;24.746;2022-09-04T14:54:37;99831.47;;;27.86;51.62
2675;BME280;1347;42.122;24.746;2022-09-04T14:57:13;99839.69;;;27.74;51.77
2675;BME280;1347;42.122;24.746;2022-09-04T14:59:49;99835.78;;;27.72;52.43
2675;BME280;1347;42.122;24.746;2022-09-04T15:02:30;99843.22;;;27.84;50.87
2675;BME280;1347;42.122;24.746;2022-09-04T15:05:02;99847.28;;;27.83;51.45
2675;BME280;1347;42.122;24.746;2022-09-04T15:07:54;99845.72;;;27.82;51.23
2675;BME280;1347;42.122;24.746;2022-09-04T15:10:28;99840.41;;;27.84;51.13
2675;BME280;1347;42.122;24.746;2022-09-04T15:13:28;99835.47;;;27.70;51.76
2675;BME280;1347;42.122;24.746;2022-09-04T15:16:15;99834.13;;;27.65;51.46
2675;BME280;1347;42.122;24.746;2022-09-04T15:18:53;99825.34;;;27.63;51.86
2675;BME280;1347;42.122;24.746;2022-09-04T15:21:26;99829.63;;;27.49;51.89
2675;BME280;1347;42.122;24.746;2022-09-04T15:24:02;99838.13;;;27.40;51.77
2675;BME280;1347;42.122;24.746;2022-09-04T15:26:38;99842.72;;;27.29;53.13
2675;BME280;1347;42.122;24.746;2022-09-04T15:29:11;99853.75;;;27.08;52.51
2675;BME280;1347;42.122;24.746;2022-09-04T15:31:42;99844.53;;;26.99;53.81
2675;BME280;1347;42.122;24.746;2022-09-04T15:34:19;99835.78;;;26.88;53.18
2675;BME280;1347;42.122;24.746;2022-09-04T15:36:47;99842.06;;;26.83;53.57
2675;BME280;1347;42.122;24.746;2022-09-04T15:39:25;99833.00;;;26.79;52.94
2675;BME280;1347;42.122;24.746;2022-09-04T15:41:54;99827.09;;;26.77;53.08
2675;BME280;1347;42.122;24.746;2022-09-04T15:44:26;99843.03;;;26.70;53.32
2675;BME280;1347;42.122;24.746;2022-09-04T15:47:05;99831.94;;;26.67;54.33
2675;BME280;1347;42.122;24.746;2022-09-04T15:49:44;99838.53;;;26.64;54.28
2675;BME280;1347;42.122;24.746;2022-09-04T15:52:36;99839.31;;;26.64;53.18
2675;BME280;1347;42.122;24.746;2022-09-04T15:55:09;99839.16;;;26.59;54.13
2675;BME280;1347;42.122;24.746;2022-09-04T15:57:53;99833.22;;;26.57;54.01
2675;BME280;1347;42.122;24.746;2022-09-04T16:00:26;99836.50;;;26.55;54.02
2675;BME280;1347;42.122;24.746;2022-09-04T16:03:02;99843.06;;;26.52;53.95
2675;BME280;1347;42.122;24.746;2022-09-04T16:05:42;99839.47;;;26.52;54.63
2675;BME280;1347;42.122;24.746;2022-09-04T16:08:18;99835.13;;;26.32;55.26